ARG1214 SAZM-SABE
Flight info
| Callsign | ARG1214 |
|---|---|
| Flight time | N/A |
| Altitude | 20000 |
| Route | PULPA UW31 TENIL |
| Aircraft | B738/H-SD3L/L |
Departure
| Time | 2026-04-25 16:15 |
|---|---|
| Airport | Ástor Piazzola International Airport (SAZM) |
Arrival
| Time | N/A |
|---|---|
| Airport | Aeroparque Jorge Newbery (SABE) |
| Time | Latitude | Longitude | Altitude | Speed | Heading |
|---|---|---|---|---|---|
| 2026-04-25 16:04 | -37.93327 | -57.58031 | 77 ft | 0 kts | 307° |
| 2026-04-25 16:12 | -37.93330 | -57.58025 | 77 ft | 4 kts | 322° |
| 2026-04-25 16:12 | -37.93338 | -57.58018 | 70 ft | 3 kts | 6° |
| 2026-04-25 16:12 | -37.93349 | -57.58023 | 66 ft | 0 kts | 15° |
| 2026-04-25 16:13 | -37.93366 | -57.58030 | 73 ft | 1 kts | 7° |
| 2026-04-25 16:13 | -37.93362 | -57.58029 | 72 ft | 0 kts | 7° |
| 2026-04-25 16:14 | -37.93352 | -57.58028 | 66 ft | 10 kts | 7° |
| 2026-04-25 16:14 | -37.93249 | -57.58043 | 73 ft | 9 kts | 357° |
| 2026-04-25 16:14 | -37.93193 | -57.58010 | 72 ft | 9 kts | 31° |
| 2026-04-25 16:14 | -37.93131 | -57.57920 | 75 ft | 13 kts | 89° |
| 2026-04-25 16:15 | -37.93313 | -57.57536 | 72 ft | 93 kts | 123° |
| 2026-04-25 16:15 | -37.93771 | -57.56656 | 156 ft | 150 kts | 126° |
| 2026-04-25 16:15 | -37.94401 | -57.55486 | 809 ft | 171 kts | 125° |
| 2026-04-25 16:15 | -37.95089 | -57.54221 | 1848 ft | 178 kts | 125° |
| 2026-04-25 16:16 | -37.95807 | -57.52917 | 2947 ft | 184 kts | 126° |
| 2026-04-25 16:16 | -37.96511 | -57.51500 | 3652 ft | 201 kts | 121° |
| 2026-04-25 16:16 | -37.97241 | -57.49894 | 3992 ft | 219 kts | 120° |
| 2026-04-25 16:16 | -37.97616 | -57.48002 | 4498 ft | 230 kts | 85° |
| 2026-04-25 16:17 | -37.97076 | -57.46084 | 5040 ft | 238 kts | 52° |
| 2026-04-25 16:17 | -37.95796 | -57.44769 | 5553 ft | 243 kts | 17° |
| 2026-04-25 16:17 | -37.94132 | -57.44609 | 6123 ft | 244 kts | 348° |
| 2026-04-25 16:17 | -37.92429 | -57.44998 | 6649 ft | 254 kts | 345° |
| 2026-04-25 16:18 | -37.90660 | -57.45472 | 7164 ft | 265 kts | 344° |
| 2026-04-25 16:18 | -37.90046 | -57.45638 | 7338 ft | 269 kts | 344° |
| 2026-04-25 16:18 | -37.88544 | -57.46046 | 7756 ft | 278 kts | 345° |
| 2026-04-25 16:18 | -37.87061 | -57.46444 | 8160 ft | 287 kts | 344° |
| 2026-04-25 16:19 | -37.85071 | -57.46969 | 8698 ft | 298 kts | 344° |
| 2026-04-25 16:19 | -37.82999 | -57.47506 | 9229 ft | 309 kts | 344° |
| 2026-04-25 16:19 | -37.80852 | -57.48056 | 9823 ft | 321 kts | 344° |
| 2026-04-25 16:20 | -37.76296 | -57.49206 | 10793 ft | 345 kts | 344° |
| 2026-04-25 16:20 | -37.73949 | -57.49789 | 11689 ft | 341 kts | 344° |
| 2026-04-25 16:20 | -37.69392 | -57.50911 | 13693 ft | 326 kts | 343° |
| 2026-04-25 16:21 | -37.67198 | -57.51451 | 14646 ft | 317 kts | 343° |
| 2026-04-25 16:21 | -37.65061 | -57.51977 | 15601 ft | 308 kts | 343° |
| 2026-04-25 16:21 | -37.62997 | -57.52485 | 16585 ft | 297 kts | 342° |
| 2026-04-25 16:21 | -37.61008 | -57.52974 | 17592 ft | 285 kts | 342° |
| 2026-04-25 16:22 | -37.59112 | -57.53440 | 18584 ft | 271 kts | 342° |
| 2026-04-25 16:22 | -37.57316 | -57.53880 | 19467 ft | 256 kts | 341° |
| 2026-04-25 16:22 | -37.55548 | -57.54316 | 19855 ft | 263 kts | 343° |
| 2026-04-25 16:22 | -37.53694 | -57.54653 | 20074 ft | 277 kts | 345° |
| 2026-04-25 16:23 | -37.51705 | -57.54951 | 20083 ft | 297 kts | 346° |
| 2026-04-25 16:23 | -37.49580 | -57.55265 | 20089 ft | 317 kts | 345° |
| 2026-04-25 16:23 | -37.47392 | -57.55910 | 20083 ft | 330 kts | 337° |
| 2026-04-25 16:23 | -37.45157 | -57.56854 | 20081 ft | 348 kts | 335° |
| 2026-04-25 16:24 | -37.42819 | -57.57897 | 20088 ft | 365 kts | 335° |
| 2026-04-25 16:24 | -37.40361 | -57.58971 | 20083 ft | 382 kts | 336° |
| 2026-04-25 16:24 | -37.37782 | -57.60055 | 20075 ft | 398 kts | 337° |
| 2026-04-25 16:24 | -37.35100 | -57.61141 | 20070 ft | 412 kts | 338° |
| 2026-04-25 16:25 | -37.32318 | -57.62233 | 20071 ft | 425 kts | 338° |
| 2026-04-25 16:25 | -37.30431 | -57.62960 | 20069 ft | 431 kts | 338° |
| 2026-04-25 16:25 | -37.26588 | -57.64416 | 20048 ft | 430 kts | 339° |
| 2026-04-25 16:25 | -37.23731 | -57.65487 | 20041 ft | 428 kts | 339° |
| 2026-04-25 16:26 | -37.20884 | -57.66552 | 20044 ft | 426 kts | 339° |
| 2026-04-25 16:26 | -37.18042 | -57.67616 | 20045 ft | 426 kts | 339° |
| 2026-04-25 16:26 | -37.15209 | -57.68678 | 20052 ft | 425 kts | 339° |
| 2026-04-25 16:26 | -37.12377 | -57.69740 | 20047 ft | 425 kts | 339° |
| 2026-04-25 16:27 | -37.09543 | -57.70804 | 20049 ft | 425 kts | 339° |
| 2026-04-25 16:27 | -37.06711 | -57.71867 | 20053 ft | 425 kts | 339° |
| 2026-04-25 16:27 | -37.03876 | -57.72930 | 20055 ft | 426 kts | 339° |
| 2026-04-25 16:27 | -37.01074 | -57.73980 | 20051 ft | 426 kts | 339° |
| 2026-04-25 16:28 | -36.98235 | -57.75043 | 20053 ft | 427 kts | 339° |
| 2026-04-25 16:28 | -36.95387 | -57.76108 | 20056 ft | 427 kts | 339° |
| 2026-04-25 16:28 | -36.92542 | -57.77171 | 20055 ft | 427 kts | 339° |
| 2026-04-25 16:28 | -36.89694 | -57.78234 | 20048 ft | 427 kts | 339° |
| 2026-04-25 16:29 | -36.86843 | -57.79294 | 20045 ft | 427 kts | 339° |
| 2026-04-25 16:29 | -36.83987 | -57.80336 | 20048 ft | 428 kts | 339° |
| 2026-04-25 16:29 | -36.81122 | -57.81339 | 20052 ft | 428 kts | 340° |
| 2026-04-25 16:29 | -36.78241 | -57.82293 | 20053 ft | 428 kts | 341° |
| 2026-04-25 16:30 | -36.75356 | -57.83186 | 20050 ft | 429 kts | 342° |
| 2026-04-25 16:30 | -36.72432 | -57.84020 | 20042 ft | 430 kts | 343° |
| 2026-04-25 16:30 | -36.69498 | -57.84781 | 20043 ft | 431 kts | 344° |
| 2026-04-25 16:30 | -36.66551 | -57.85463 | 20035 ft | 432 kts | 345° |
| 2026-04-25 16:31 | -36.63581 | -57.86063 | 20043 ft | 433 kts | 346° |
| 2026-04-25 16:31 | -36.60598 | -57.86578 | 20048 ft | 433 kts | 348° |
| 2026-04-25 16:31 | -36.57597 | -57.87007 | 20056 ft | 434 kts | 349° |
| 2026-04-25 16:31 | -36.54586 | -57.87349 | 20055 ft | 435 kts | 351° |
| 2026-04-25 16:32 | -36.51564 | -57.87599 | 20058 ft | 436 kts | 352° |
| 2026-04-25 16:32 | -36.48531 | -57.87756 | 20061 ft | 437 kts | 353° |
| 2026-04-25 16:32 | -36.45488 | -57.87816 | 20061 ft | 438 kts | 355° |
| 2026-04-25 16:32 | -36.42457 | -57.87781 | 20055 ft | 439 kts | 356° |
| 2026-04-25 16:33 | -36.39984 | -57.87682 | 20054 ft | 440 kts | 357° |
| 2026-04-25 16:33 | -36.36924 | -57.87499 | 20046 ft | 440 kts | 358° |
| 2026-04-25 16:33 | -36.34231 | -57.87338 | 20040 ft | 440 kts | 357° |
| 2026-04-25 16:33 | -36.31301 | -57.87455 | 20184 ft | 434 kts | 352° |
| 2026-04-25 16:34 | -36.28551 | -57.87909 | 20990 ft | 410 kts | 347° |
| 2026-04-25 16:34 | -36.25775 | -57.88391 | 21167 ft | 396 kts | 346° |
| 2026-04-25 16:34 | -36.22973 | -57.88914 | 20537 ft | 420 kts | 346° |
| 2026-04-25 16:34 | -36.19997 | -57.89527 | 19874 ft | 435 kts | 340° |
| 2026-04-25 16:35 | -36.17376 | -57.90148 | 19457 ft | 0 kts | 8° |